createdAt,value
2018-08-03T00:00:45.028Z,14.50
2018-08-03T00:03:13.426Z,14.50
2018-08-03T00:05:41.778Z,12.60
2018-08-03T00:08:10.107Z,12.90
2018-08-03T00:10:38.497Z,11.90
2018-08-03T00:13:06.992Z,18.47
2018-08-03T00:15:35.410Z,13.40
2018-08-03T00:18:03.765Z,11.60
2018-08-03T00:20:32.127Z,12.63
2018-08-03T00:23:00.506Z,14.23
2018-08-03T00:25:30.196Z,12.97
2018-08-03T00:27:58.582Z,14.20
2018-08-03T00:30:26.355Z,12.73
2018-08-03T00:32:54.802Z,14.30
2018-08-03T00:35:23.215Z,12.57
2018-08-03T00:37:51.582Z,14.83
2018-08-03T00:40:19.936Z,13.80
2018-08-03T00:42:48.400Z,12.73
2018-08-03T00:45:16.826Z,13.03
2018-08-03T00:47:45.189Z,12.47
2018-08-03T00:50:13.557Z,14.37
2018-08-03T00:52:41.887Z,25.90
2018-08-03T00:55:10.220Z,13.50
2018-08-03T00:57:38.564Z,13.20
2018-08-03T01:00:07.000Z,14.57
2018-08-03T01:02:35.384Z,14.40
2018-08-03T01:05:03.838Z,12.30
2018-08-03T01:07:32.183Z,13.17
2018-08-03T01:10:00.538Z,12.73
2018-08-03T01:12:28.913Z,13.20
2018-08-03T01:14:57.302Z,13.00
2018-08-03T01:17:25.766Z,13.20
2018-08-03T01:19:54.172Z,12.77
2018-08-03T01:22:22.724Z,13.43
2018-08-03T01:24:51.105Z,13.67
2018-08-03T01:27:19.566Z,13.33
2018-08-03T01:29:47.877Z,13.33
2018-08-03T01:32:16.327Z,14.83
2018-08-03T01:34:44.663Z,13.63
2018-08-03T01:37:12.983Z,12.87
2018-08-03T01:39:41.377Z,13.60
2018-08-03T01:42:09.756Z,13.00
2018-08-03T01:44:38.117Z,13.50
2018-08-03T01:47:06.638Z,13.43
2018-08-03T01:49:34.980Z,13.57
2018-08-03T01:52:03.419Z,13.80
2018-08-03T01:54:31.757Z,14.17
2018-08-03T01:57:00.176Z,14.07
2018-08-03T01:59:28.581Z,13.10
2018-08-03T02:01:56.944Z,14.27
2018-08-03T02:04:25.305Z,13.10
2018-08-03T02:06:53.665Z,13.60
2018-08-03T02:09:22.004Z,14.30
2018-08-03T02:11:50.367Z,13.30
2018-08-03T02:14:18.705Z,13.63
2018-08-03T02:16:47.083Z,12.93
2018-08-03T02:19:15.408Z,12.50
2018-08-03T02:21:43.805Z,13.97
2018-08-03T02:24:12.213Z,14.97
2018-08-03T02:26:40.585Z,13.90
2018-08-03T02:29:08.952Z,13.10
2018-08-03T02:31:37.268Z,12.90
2018-08-03T02:34:05.620Z,12.73
2018-08-03T02:36:33.942Z,14.33
2018-08-03T02:39:02.629Z,14.87
2018-08-03T02:41:30.935Z,11.80
2018-08-03T02:43:59.304Z,13.37
2018-08-03T02:46:27.624Z,14.60
2018-08-03T02:48:55.936Z,13.53
2018-08-03T02:51:24.278Z,12.63
2018-08-03T02:53:52.626Z,13.27
2018-08-03T02:56:20.932Z,13.50
2018-08-03T02:58:49.277Z,13.70
2018-08-03T03:01:17.610Z,14.07
2018-08-03T03:03:46.013Z,14.07
2018-08-03T03:06:14.349Z,13.17
2018-08-03T03:08:42.653Z,13.23
2018-08-03T03:11:10.948Z,13.87
2018-08-03T03:13:39.271Z,13.30
2018-08-03T03:16:07.661Z,14.07
2018-08-03T03:18:35.977Z,14.10
2018-08-03T03:21:04.344Z,13.80
2018-08-03T03:23:32.774Z,14.47
2018-08-03T03:26:01.105Z,13.83
2018-08-03T03:28:29.466Z,15.50
2018-08-03T03:30:57.864Z,14.00
2018-08-03T03:33:26.243Z,15.07
2018-08-03T03:35:55.206Z,13.20
2018-08-03T03:38:23.537Z,13.20
2018-08-03T03:40:51.866Z,13.47
2018-08-03T03:43:20.330Z,12.97
2018-08-03T03:45:48.753Z,13.47
2018-08-03T03:48:17.241Z,13.63
2018-08-03T03:50:46.249Z,13.30
2018-08-03T03:53:14.594Z,13.33
2018-08-03T03:55:42.787Z,13.73
2018-08-03T03:58:11.115Z,13.33
2018-08-03T04:00:39.561Z,13.90
2018-08-03T04:03:07.970Z,14.27
2018-08-03T04:05:36.316Z,13.93
2018-08-03T04:08:04.716Z,14.00
2018-08-03T04:10:33.217Z,14.00
2018-08-03T04:13:01.542Z,13.00
2018-08-03T04:15:29.945Z,14.97
2018-08-03T04:17:58.224Z,14.30
2018-08-03T04:20:26.584Z,13.97
2018-08-03T04:22:54.927Z,13.97
2018-08-03T04:25:23.276Z,14.90
2018-08-03T04:27:51.601Z,13.47
2018-08-03T04:30:19.954Z,12.60
2018-08-03T04:32:48.256Z,14.03
2018-08-03T04:35:16.631Z,13.60
2018-08-03T04:37:45.049Z,14.30
2018-08-03T04:40:13.478Z,13.90
2018-08-03T04:42:41.943Z,14.30
2018-08-03T04:45:10.337Z,14.27
2018-08-03T04:47:38.690Z,15.20
2018-08-03T04:50:07.077Z,15.37
2018-08-03T04:52:35.444Z,13.60
2018-08-03T04:55:03.844Z,16.00
2018-08-03T04:57:32.204Z,14.10
2018-08-03T05:00:00.543Z,14.87
2018-08-03T05:02:28.900Z,15.70
2018-08-03T05:04:57.321Z,15.03
2018-08-03T05:07:25.665Z,14.97
2018-08-03T05:09:53.984Z,14.83
2018-08-03T05:12:22.270Z,14.80
2018-08-03T05:14:50.598Z,15.53
2018-08-03T05:17:19.055Z,15.43
2018-08-03T05:19:47.403Z,14.70
2018-08-03T05:22:15.832Z,15.10
2018-08-03T05:24:44.286Z,15.40
2018-08-03T05:27:12.668Z,14.83
2018-08-03T05:29:41.078Z,15.40
2018-08-03T05:32:09.492Z,14.73
2018-08-03T05:34:37.804Z,15.17
2018-08-03T05:37:06.208Z,16.07
2018-08-03T05:39:34.665Z,16.13
2018-08-03T05:42:03.120Z,14.40
2018-08-03T05:44:31.436Z,15.00
2018-08-03T05:46:59.891Z,15.93
2018-08-03T05:49:28.332Z,16.40
2018-08-03T05:51:56.782Z,16.03
2018-08-03T05:54:25.192Z,19.87
2018-08-03T05:56:53.620Z,20.07
2018-08-03T05:59:21.993Z,20.80
2018-08-03T06:01:50.620Z,20.93
2018-08-03T06:04:19.218Z,18.97
2018-08-03T06:06:47.646Z,20.67
2018-08-03T06:09:16.031Z,20.90
2018-08-03T06:11:44.310Z,21.43
2018-08-03T06:14:15.793Z,21.40
2018-08-03T06:16:44.229Z,22.17
2018-08-03T06:19:12.615Z,21.53
2018-08-03T06:21:40.980Z,21.80
2018-08-03T06:24:09.396Z,20.60
2018-08-03T06:26:37.729Z,20.43
2018-08-03T06:29:06.444Z,21.00
2018-08-03T06:31:34.828Z,21.43
2018-08-03T06:34:03.248Z,20.67
2018-08-03T06:36:31.660Z,21.30
2018-08-03T06:39:00.009Z,20.30
2018-08-03T06:41:28.402Z,21.60
2018-08-03T06:43:56.878Z,19.97
2018-08-03T06:46:25.195Z,21.17
2018-08-03T06:48:53.873Z,20.53
2018-08-03T06:51:22.208Z,20.40
2018-08-03T06:53:50.630Z,18.83
2018-08-03T06:56:18.912Z,19.70
2018-08-03T06:58:47.269Z,18.57
2018-08-03T07:01:15.625Z,19.23
2018-08-03T07:03:43.992Z,20.10
2018-08-03T07:06:12.409Z,18.27
2018-08-03T07:08:40.718Z,18.97
2018-08-03T07:11:09.005Z,19.30
2018-08-03T07:13:37.357Z,18.83
2018-08-03T07:16:05.770Z,20.40
2018-08-03T07:18:34.163Z,18.60
2018-08-03T07:21:02.545Z,19.37
2018-08-03T07:23:30.881Z,19.40
2018-08-03T07:25:59.121Z,17.20
2018-08-03T07:28:27.408Z,17.73
2018-08-03T07:30:55.858Z,19.23
2018-08-03T07:33:24.273Z,19.33
2018-08-03T07:35:52.829Z,17.10
2018-08-03T07:38:21.416Z,16.73
2018-08-03T07:40:49.798Z,16.07
2018-08-03T07:43:18.183Z,16.03
2018-08-03T07:45:46.502Z,16.37
2018-08-03T07:48:14.942Z,16.10
2018-08-03T07:50:43.330Z,15.47
2018-08-03T07:53:11.576Z,16.60
2018-08-03T07:55:39.925Z,15.60
2018-08-03T07:58:08.272Z,15.03
2018-08-03T08:00:36.457Z,16.17
2018-08-03T08:03:04.948Z,15.33
2018-08-03T08:05:33.234Z,13.80
2018-08-03T08:08:01.544Z,14.63
2018-08-03T08:10:30.293Z,15.43
2018-08-03T08:12:58.666Z,16.70
2018-08-03T08:15:27.042Z,15.63
2018-08-03T08:17:55.499Z,15.27
2018-08-03T08:20:23.765Z,15.33
2018-08-03T08:22:52.082Z,15.53
2018-08-03T08:25:20.466Z,16.00
2018-08-03T08:27:48.807Z,15.03
2018-08-03T08:30:17.270Z,14.00
2018-08-03T08:32:45.556Z,13.77
2018-08-03T08:35:13.935Z,15.43
2018-08-03T08:37:42.281Z,16.40
2018-08-03T08:40:10.641Z,15.07
2018-08-03T08:42:39.982Z,15.00
2018-08-03T08:45:08.421Z,14.43
2018-08-03T08:47:36.874Z,14.00
2018-08-03T08:50:06.962Z,13.43
2018-08-03T08:52:35.345Z,14.93
2018-08-03T08:55:03.667Z,14.97
2018-08-03T08:57:32.001Z,15.20
2018-08-03T09:00:00.339Z,14.07
2018-08-03T09:02:28.675Z,14.37
2018-08-03T09:04:57.093Z,13.13
2018-08-03T09:07:25.586Z,13.33
2018-08-03T09:09:53.994Z,13.17
2018-08-03T09:12:22.339Z,13.73
2018-08-03T09:14:50.545Z,12.63
2018-08-03T09:17:19.020Z,13.80
2018-08-03T09:19:47.348Z,13.03
2018-08-03T09:22:16.522Z,13.77
2018-08-03T09:24:44.958Z,12.33
2018-08-03T09:27:13.202Z,13.00
2018-08-03T09:29:41.513Z,13.80
2018-08-03T09:32:09.994Z,12.50
2018-08-03T09:34:38.542Z,12.53
2018-08-03T09:37:06.941Z,12.77
2018-08-03T09:39:35.280Z,12.67
2018-08-03T09:42:04.618Z,14.13
2018-08-03T09:44:32.853Z,14.13
2018-08-03T09:47:01.147Z,14.03
2018-08-03T09:49:29.513Z,14.20
2018-08-03T09:51:57.919Z,14.50
2018-08-03T09:54:26.231Z,14.07
2018-08-03T09:56:54.533Z,14.27
2018-08-03T09:59:22.896Z,13.50
2018-08-03T10:01:51.291Z,13.57
2018-08-03T10:04:19.578Z,13.23
2018-08-03T10:06:47.891Z,14.57
2018-08-03T10:09:16.333Z,15.40
2018-08-03T10:11:44.752Z,15.43
2018-08-03T10:14:13.100Z,14.80
2018-08-03T10:16:41.333Z,14.27
2018-08-03T10:19:09.703Z,13.87
2018-08-03T10:21:38.030Z,13.70
2018-08-03T10:24:06.368Z,14.70
2018-08-03T10:26:34.709Z,12.47
2018-08-03T10:29:03.033Z,11.73
2018-08-03T10:31:31.481Z,14.13
2018-08-03T10:33:59.834Z,13.33
2018-08-03T10:36:28.195Z,13.93
2018-08-03T10:38:56.440Z,11.83
2018-08-03T10:41:24.776Z,12.70
2018-08-03T10:43:53.123Z,12.70
2018-08-03T10:46:21.521Z,12.77
2018-08-03T10:48:49.923Z,13.20
2018-08-03T10:51:18.241Z,14.97
2018-08-03T10:53:46.624Z,13.00
2018-08-03T10:56:15.008Z,12.90
2018-08-03T10:58:43.371Z,11.80
2018-08-03T11:01:11.894Z,12.30
2018-08-03T11:03:40.200Z,14.07
2018-08-03T11:06:08.592Z,13.37
2018-08-03T11:08:36.999Z,14.20
2018-08-03T11:11:05.226Z,14.30
2018-08-03T11:13:33.525Z,14.33
2018-08-03T11:16:01.843Z,13.10
2018-08-03T11:18:30.166Z,12.07
2018-08-03T11:20:58.538Z,12.50
2018-08-03T11:23:26.924Z,12.73
2018-08-03T11:25:55.349Z,11.60
2018-08-03T11:28:23.745Z,13.20
2018-08-03T11:30:52.052Z,12.77
2018-08-03T11:33:20.393Z,12.00
2018-08-03T11:35:48.728Z,11.70
2018-08-03T11:38:16.924Z,11.60
2018-08-03T11:40:45.290Z,12.20
2018-08-03T11:43:13.673Z,11.80
2018-08-03T11:45:41.944Z,12.13
2018-08-03T11:48:10.201Z,10.60
2018-08-03T11:50:38.512Z,11.40
2018-08-03T11:53:06.858Z,11.17
2018-08-03T11:55:35.241Z,10.97
2018-08-03T11:58:03.626Z,11.50
2018-08-03T12:00:31.820Z,11.27
2018-08-03T12:03:00.212Z,10.90
2018-08-03T12:05:28.575Z,10.50
2018-08-03T12:07:56.961Z,10.77
2018-08-03T12:10:25.262Z,11.20
2018-08-03T12:12:53.710Z,11.33
2018-08-03T12:15:22.067Z,10.30
2018-08-03T12:17:50.447Z,10.20
2018-08-03T12:20:18.676Z,9.80
2018-08-03T12:22:47.026Z,10.07
2018-08-03T12:25:15.332Z,10.83
2018-08-03T12:27:43.706Z,10.33
2018-08-03T12:30:12.058Z,10.43
2018-08-03T12:32:40.409Z,11.13
2018-08-03T12:35:08.657Z,10.70
2018-08-03T12:37:37.078Z,11.03
2018-08-03T12:40:05.490Z,11.07
2018-08-03T12:42:33.849Z,10.83
2018-08-03T12:45:02.181Z,10.07
2018-08-03T12:47:30.534Z,11.07
2018-08-03T12:49:58.923Z,11.10
2018-08-03T12:52:27.294Z,10.27
2018-08-03T12:54:55.606Z,12.53
2018-08-03T12:57:23.974Z,10.90
2018-08-03T12:59:52.368Z,10.70
2018-08-03T13:02:20.645Z,10.20
2018-08-03T13:04:48.893Z,10.90
2018-08-03T13:07:17.212Z,10.70
2018-08-03T13:09:45.583Z,10.77
2018-08-03T13:12:13.949Z,10.07
2018-08-03T13:14:42.266Z,10.17
2018-08-03T13:17:10.667Z,10.90
2018-08-03T13:19:39.005Z,10.47
2018-08-03T13:22:19.611Z,11.43
2018-08-03T13:24:47.982Z,10.90
2018-08-03T13:27:16.749Z,11.33
2018-08-03T13:32:19.938Z,10.63
2018-08-03T13:34:48.360Z,10.70
2018-08-03T13:37:16.767Z,10.73
2018-08-03T13:39:45.149Z,10.40
2018-08-03T13:42:13.651Z,10.00
2018-08-03T13:44:42.100Z,9.93
2018-08-03T13:47:10.397Z,9.63
2018-08-03T13:49:38.732Z,10.60
2018-08-03T13:52:06.989Z,10.77
2018-08-03T13:54:35.301Z,10.17
2018-08-03T13:57:03.864Z,9.47
2018-08-03T13:59:32.661Z,9.27
2018-08-03T14:02:17.009Z,9.97
2018-08-03T14:04:45.403Z,10.50
2018-08-03T14:07:13.780Z,11.07
2018-08-03T14:09:42.217Z,9.33
2018-08-03T14:12:10.580Z,11.20
2018-08-03T14:14:39.597Z,9.90
2018-08-03T14:17:08.517Z,10.57
2018-08-03T14:19:36.902Z,9.53
2018-08-03T14:22:05.666Z,10.20
2018-08-03T14:24:34.598Z,9.00
2018-08-03T14:27:03.591Z,9.60
2018-08-03T14:29:32.123Z,9.90
2018-08-03T14:32:00.623Z,10.80
2018-08-03T14:34:28.962Z,8.77
2018-08-03T14:36:57.216Z,10.00
2018-08-03T14:39:25.711Z,10.97
2018-08-03T14:41:54.090Z,10.13
2018-08-03T14:44:22.547Z,9.70
2018-08-03T14:46:50.993Z,11.10
2018-08-03T14:49:19.412Z,10.37
2018-08-03T14:51:47.713Z,10.60
2018-08-03T14:54:15.974Z,10.20
2018-08-03T14:56:44.406Z,9.33
2018-08-03T14:59:12.693Z,9.93
2018-08-03T15:01:41.074Z,9.90
2018-08-03T15:04:09.490Z,10.20
2018-08-03T15:06:37.853Z,10.50
2018-08-03T15:09:09.436Z,10.00
2018-08-03T15:11:37.814Z,9.63
2018-08-03T15:14:06.275Z,9.37
2018-08-03T15:16:34.742Z,9.80
2018-08-03T15:19:03.374Z,9.27
2018-08-03T15:21:31.762Z,8.87
2018-08-03T15:24:00.181Z,10.37
2018-08-03T15:26:28.626Z,8.37
2018-08-03T15:28:56.998Z,10.27
2018-08-03T15:31:25.416Z,10.13
2018-08-03T15:33:53.858Z,9.93
2018-08-03T15:36:22.278Z,10.10
2018-08-03T15:38:50.596Z,9.30
2018-08-03T15:41:19.087Z,9.70
2018-08-03T15:43:47.593Z,10.47
2018-08-03T15:46:15.952Z,9.43
2018-08-03T15:48:44.632Z,10.07
2018-08-03T15:51:13.553Z,10.03
2018-08-03T15:53:41.894Z,10.60
2018-08-03T15:56:10.507Z,9.50
2018-08-03T15:58:38.927Z,8.87
2018-08-03T16:01:07.361Z,10.53
2018-08-03T16:03:35.737Z,9.70
2018-08-03T16:06:04.942Z,9.37
2018-08-03T16:08:33.954Z,10.20
2018-08-03T16:11:02.316Z,9.03
2018-08-03T16:13:30.569Z,9.63
2018-08-03T16:15:58.971Z,9.53
2018-08-03T16:18:27.231Z,9.50
2018-08-03T16:20:55.608Z,10.30
2018-08-03T16:23:24.097Z,8.90
2018-08-03T16:25:52.595Z,10.00
2018-08-03T16:28:21.014Z,9.87
2018-08-03T16:30:49.330Z,9.73
2018-08-03T16:33:17.752Z,10.50
2018-08-03T16:35:46.090Z,9.97
2018-08-03T16:38:14.463Z,9.80
2018-08-03T16:40:42.857Z,9.77
2018-08-03T16:43:11.253Z,9.70
2018-08-03T16:45:39.626Z,9.90
2018-08-03T16:48:07.986Z,10.53
2018-08-03T16:50:36.356Z,8.97
2018-08-03T16:53:04.813Z,9.63
2018-08-03T16:55:33.307Z,8.63
2018-08-03T16:58:01.696Z,10.10
2018-08-03T17:00:30.072Z,9.40
2018-08-03T17:02:58.469Z,10.07
2018-08-03T17:05:26.877Z,10.70
2018-08-03T17:07:55.256Z,9.83
2018-08-03T17:10:23.682Z,8.57
2018-08-03T17:12:52.009Z,9.47
2018-08-03T17:15:20.442Z,9.30
2018-08-03T17:17:48.767Z,8.60
2018-08-03T17:20:17.142Z,10.83
2018-08-03T17:22:45.534Z,11.00
2018-08-03T17:25:13.926Z,9.80
2018-08-03T17:27:42.326Z,9.40
2018-08-03T17:30:10.702Z,10.27
2018-08-03T17:32:39.100Z,9.00
2018-08-03T17:35:07.337Z,10.70
2018-08-03T17:37:35.884Z,11.73
2018-08-03T17:40:04.547Z,9.87
2018-08-03T17:42:32.870Z,10.30
2018-08-03T17:45:01.184Z,9.60
2018-08-03T17:47:29.546Z,10.83
2018-08-03T17:49:57.890Z,10.07
2018-08-03T17:52:26.284Z,10.00
2018-08-03T17:54:54.681Z,10.00
2018-08-03T17:57:23.225Z,9.17
2018-08-03T17:59:51.648Z,10.40
2018-08-03T18:02:20.056Z,9.27
2018-08-03T18:04:48.478Z,9.17
2018-08-03T18:07:16.860Z,10.50
2018-08-03T18:09:45.260Z,9.43
2018-08-03T18:12:13.606Z,10.13
2018-08-03T18:14:41.966Z,9.40
2018-08-03T18:17:10.365Z,10.30
2018-08-03T18:19:38.734Z,9.07
2018-08-03T18:22:07.355Z,10.03
2018-08-03T18:24:35.582Z,9.10
2018-08-03T18:27:04.076Z,9.60
2018-08-03T18:29:32.443Z,9.13
2018-08-03T18:32:00.878Z,9.10
2018-08-03T18:34:29.165Z,10.73
2018-08-03T18:36:57.516Z,12.17
2018-08-03T18:39:25.740Z,10.43
2018-08-03T18:41:54.038Z,9.80
2018-08-03T18:44:22.391Z,10.07
2018-08-03T18:46:50.772Z,12.03
2018-08-03T18:49:19.032Z,11.37
2018-08-03T18:51:47.438Z,11.17
2018-08-03T18:54:16.002Z,11.40
2018-08-03T18:56:45.126Z,11.00
2018-08-03T18:59:13.486Z,12.10
2018-08-03T19:01:41.872Z,10.83
2018-08-03T19:04:10.302Z,11.07
2018-08-03T19:06:38.715Z,10.73
2018-08-03T19:09:07.911Z,11.47
2018-08-03T19:11:36.489Z,11.47
2018-08-03T19:14:04.991Z,12.10
2018-08-03T19:16:33.390Z,11.73
2018-08-03T19:19:01.941Z,12.90
2018-08-03T19:21:30.361Z,12.10
2018-08-03T19:23:58.818Z,11.17
2018-08-03T19:26:27.245Z,11.40
2018-08-03T19:28:55.616Z,12.13
2018-08-03T19:31:24.091Z,12.30
2018-08-03T19:33:52.467Z,11.83
2018-08-03T19:36:20.841Z,11.07
2018-08-03T19:38:49.181Z,10.87
2018-08-03T19:41:17.561Z,10.60
2018-08-03T19:43:46.774Z,10.20
2018-08-03T19:46:15.199Z,11.50
2018-08-03T19:48:43.621Z,12.00
2018-08-03T19:51:11.993Z,12.73
2018-08-03T19:53:40.362Z,11.70
2018-08-03T19:56:08.762Z,11.27
2018-08-03T19:58:37.194Z,10.80
2018-08-03T20:01:05.673Z,11.00
2018-08-03T20:03:34.415Z,12.13
2018-08-03T20:06:03.205Z,11.17
2018-08-03T20:08:31.597Z,11.17
2018-08-03T20:10:59.985Z,11.70
2018-08-03T20:13:28.624Z,11.60
2018-08-03T20:15:57.014Z,11.57
2018-08-03T20:18:25.406Z,11.57
2018-08-03T20:20:54.201Z,12.43
2018-08-03T20:23:22.690Z,11.73
2018-08-03T20:25:51.117Z,11.30
2018-08-03T20:28:19.547Z,12.10
2018-08-03T20:30:47.947Z,11.10
2018-08-03T20:33:16.349Z,12.03
2018-08-03T20:35:44.760Z,11.57
2018-08-03T20:38:13.270Z,12.00
2018-08-03T20:40:41.613Z,11.37
2018-08-03T20:43:09.889Z,10.87
2018-08-03T20:45:38.190Z,10.47
2018-08-03T20:48:06.629Z,11.60
2018-08-03T20:50:34.917Z,11.17
2018-08-03T20:53:03.259Z,10.97
2018-08-03T20:55:31.753Z,11.10
2018-08-03T20:58:00.071Z,11.93
2018-08-03T21:00:28.492Z,12.30
2018-08-03T21:02:56.822Z,12.33
2018-08-03T21:05:25.241Z,11.60
2018-08-03T21:07:53.732Z,11.73
2018-08-03T21:10:22.218Z,11.90
2018-08-03T21:12:50.723Z,11.20
2018-08-03T21:15:19.008Z,11.83
2018-08-03T21:17:47.435Z,12.30
2018-08-03T21:20:15.805Z,11.97
2018-08-03T21:22:44.254Z,11.43
2018-08-03T21:25:12.619Z,12.10
2018-08-03T21:27:40.988Z,11.00
2018-08-03T21:30:10.495Z,12.43
2018-08-03T21:32:38.878Z,11.07
2018-08-03T21:35:07.389Z,12.13
2018-08-03T21:37:35.959Z,11.60
2018-08-03T21:40:04.803Z,11.63
2018-08-03T21:42:33.282Z,11.80
2018-08-03T21:45:01.644Z,12.00
2018-08-03T21:47:30.110Z,12.00
2018-08-03T21:49:58.380Z,12.57
2018-08-03T21:52:26.753Z,11.70
2018-08-03T21:54:55.135Z,11.60
2018-08-03T21:57:23.639Z,11.83
2018-08-03T21:59:51.954Z,12.67
2018-08-03T22:02:20.381Z,13.77
2018-08-03T22:04:48.690Z,11.60
2018-08-03T22:07:17.136Z,11.87
2018-08-03T22:09:45.500Z,12.53
2018-08-03T22:12:13.974Z,11.60
2018-08-03T22:14:42.222Z,12.83
2018-08-03T22:17:10.826Z,11.70
2018-08-03T22:19:39.146Z,12.40
2018-08-03T22:22:07.593Z,12.97
2018-08-03T22:24:36.079Z,11.20
2018-08-03T22:27:04.428Z,10.30
2018-08-03T22:29:33.222Z,11.67
2018-08-03T22:32:01.617Z,12.80
2018-08-03T22:34:30.235Z,11.97
2018-08-03T22:36:58.582Z,12.10
2018-08-03T22:39:27.076Z,12.13
2018-08-03T22:41:55.574Z,13.67
2018-08-03T22:44:24.830Z,12.47
2018-08-03T22:46:53.195Z,12.70
2018-08-03T22:49:21.385Z,13.23
2018-08-03T22:51:49.801Z,12.40
2018-08-03T22:54:18.133Z,11.70
2018-08-03T22:56:46.742Z,11.83
2018-08-03T22:59:15.090Z,12.30
2018-08-03T23:01:43.520Z,11.10
2018-08-03T23:04:11.976Z,11.80
2018-08-03T23:06:40.309Z,12.03
2018-08-03T23:09:09.392Z,12.50
2018-08-03T23:11:37.856Z,12.53
2018-08-03T23:14:06.361Z,12.83
2018-08-03T23:16:34.698Z,12.13
2018-08-03T23:19:03.081Z,10.83
2018-08-03T23:21:31.480Z,12.80
2018-08-03T23:23:59.871Z,12.17
2018-08-03T23:26:28.824Z,12.10
2018-08-03T23:28:57.233Z,11.53
2018-08-03T23:31:25.623Z,12.07
2018-08-03T23:33:54.093Z,12.63
2018-08-03T23:36:22.435Z,12.17
2018-08-03T23:38:50.766Z,12.67
2018-08-03T23:41:19.081Z,11.37
2018-08-03T23:43:47.281Z,12.20
2018-08-03T23:46:15.636Z,11.53
2018-08-03T23:48:43.832Z,12.10
2018-08-03T23:51:12.177Z,11.23
2018-08-03T23:53:40.525Z,12.10
2018-08-03T23:56:08.853Z,11.00
2018-08-03T23:58:37.252Z,11.50
